sensor_id;sensor_type;location;lat;lon;timestamp;pressure;altitude;pressure_sealevel;temperature;humidity
34979;BME280;21185;50.978;13.720;2023-05-02T00:02:02;98104.59;;;14.54;55.90
34979;BME280;21185;50.978;13.720;2023-05-02T00:07:04;98104.97;;;14.51;55.96
34979;BME280;21185;50.978;13.720;2023-05-02T00:12:06;98099.56;;;14.53;56.19
34979;BME280;21185;50.978;13.720;2023-05-02T00:17:08;98106.78;;;14.51;56.14
34979;BME280;21185;50.978;13.720;2023-05-02T00:22:10;98104.56;;;14.48;56.34
34979;BME280;21185;50.978;13.720;2023-05-02T00:27:12;98103.13;;;14.45;56.37
34979;BME280;21185;50.978;13.720;2023-05-02T00:32:14;98104.31;;;14.43;56.77
34979;BME280;21185;50.978;13.720;2023-05-02T00:37:16;98108.09;;;14.40;56.74
34979;BME280;21185;50.978;13.720;2023-05-02T00:42:18;98110.88;;;14.39;56.95
34979;BME280;21185;50.978;13.720;2023-05-02T00:47:23;98104.88;;;14.38;56.81
34979;BME280;21185;50.978;13.720;2023-05-02T00:52:25;98100.63;;;14.37;57.02
34979;BME280;21185;50.978;13.720;2023-05-02T00:57:29;98109.47;;;14.36;57.15
34979;BME280;21185;50.978;13.720;2023-05-02T01:02:36;98112.06;;;14.36;57.01
34979;BME280;21185;50.978;13.720;2023-05-02T01:08:24;98109.28;;;14.38;57.07
34979;BME280;21185;50.978;13.720;2023-05-02T01:13:34;98118.09;;;14.37;56.93
34979;BME280;21185;50.978;13.720;2023-05-02T01:18:41;98117.50;;;14.35;57.17
34979;BME280;21185;50.978;13.720;2023-05-02T01:23:59;98109.03;;;14.33;57.08
34979;BME280;21185;50.978;13.720;2023-05-02T01:29:04;98103.19;;;14.31;57.16
34979;BME280;21185;50.978;13.720;2023-05-02T01:34:10;98105.81;;;14.31;57.15
34979;BME280;21185;50.978;13.720;2023-05-02T01:39:17;98112.03;;;14.30;57.13
34979;BME280;21185;50.978;13.720;2023-05-02T01:44:21;98114.03;;;14.27;57.32
34979;BME280;21185;50.978;13.720;2023-05-02T01:49:25;98110.78;;;14.25;57.47
34979;BME280;21185;50.978;13.720;2023-05-02T01:54:29;98102.34;;;14.23;57.43
34979;BME280;21185;50.978;13.720;2023-05-02T01:59:32;98107.56;;;14.23;57.51
34979;BME280;21185;50.978;13.720;2023-05-02T02:04:36;98110.19;;;14.23;57.55
34979;BME280;21185;50.978;13.720;2023-05-02T02:09:39;98113.41;;;14.25;57.48
34979;BME280;21185;50.978;13.720;2023-05-02T02:14:47;98111.16;;;14.22;57.65
34979;BME280;21185;50.978;13.720;2023-05-02T02:19:52;98112.34;;;14.20;57.52
34979;BME280;21185;50.978;13.720;2023-05-02T02:24:57;98118.75;;;14.17;57.75
34979;BME280;21185;50.978;13.720;2023-05-02T02:29:59;98123.97;;;14.17;57.83
34979;BME280;21185;50.978;13.720;2023-05-02T02:35:02;98121.75;;;14.14;57.80
34979;BME280;21185;50.978;13.720;2023-05-02T02:40:13;98133.19;;;14.13;58.06
34979;BME280;21185;50.978;13.720;2023-05-02T02:45:39;98135.97;;;14.12;58.39
34979;BME280;21185;50.978;13.720;2023-05-02T02:51:12;98144.78;;;14.11;58.19
34979;BME280;21185;50.978;13.720;2023-05-02T02:56:21;98152.00;;;14.09;58.17
34979;BME280;21185;50.978;13.720;2023-05-02T03:01:30;98160.81;;;14.08;58.22
34979;BME280;21185;50.978;13.720;2023-05-02T03:06:33;98166.22;;;14.06;58.42
34979;BME280;21185;50.978;13.720;2023-05-02T03:11:35;98167.22;;;14.05;58.48
34979;BME280;21185;50.978;13.720;2023-05-02T03:16:40;98171.81;;;14.03;58.69
34979;BME280;21185;50.978;13.720;2023-05-02T03:21:48;98178.84;;;14.03;58.58
34979;BME280;21185;50.978;13.720;2023-05-02T03:26:57;98182.63;;;14.00;58.56
34979;BME280;21185;50.978;13.720;2023-05-02T03:32:05;98190.81;;;13.97;58.58
34979;BME280;21185;50.978;13.720;2023-05-02T03:37:09;98206.84;;;13.94;58.55
34979;BME280;21185;50.978;13.720;2023-05-02T03:42:11;98204.59;;;13.91;58.66
34979;BME280;21185;50.978;13.720;2023-05-02T03:47:13;98208.41;;;13.88;58.58
34979;BME280;21185;50.978;13.720;2023-05-02T03:52:17;98202.75;;;13.85;58.68
34979;BME280;21185;50.978;13.720;2023-05-02T03:57:20;98205.72;;;13.82;58.52
34979;BME280;21185;50.978;13.720;2023-05-02T04:02:22;98215.53;;;13.80;58.46
34979;BME280;21185;50.978;13.720;2023-05-02T04:07:24;98224.69;;;13.76;58.46
34979;BME280;21185;50.978;13.720;2023-05-02T04:12:36;98232.91;;;13.73;58.62
34979;BME280;21185;50.978;13.720;2023-05-02T04:17:39;98242.69;;;13.71;58.63
34979;BME280;21185;50.978;13.720;2023-05-02T04:22:43;98246.47;;;13.68;58.58
34979;BME280;21185;50.978;13.720;2023-05-02T04:27:46;98255.09;;;13.69;58.61
34979;BME280;21185;50.978;13.720;2023-05-02T04:32:52;98265.53;;;13.69;58.56
34979;BME280;21185;50.978;13.720;2023-05-02T04:37:55;98278.56;;;13.69;58.56
34979;BME280;21185;50.978;13.720;2023-05-02T04:42:58;98288.00;;;13.70;58.74
34979;BME280;21185;50.978;13.720;2023-05-02T04:48:05;98293.06;;;13.71;58.66
34979;BME280;21185;50.978;13.720;2023-05-02T04:53:07;98309.69;;;13.70;58.69
34979;BME280;21185;50.978;13.720;2023-05-02T04:58:10;98317.34;;;13.72;58.67
34979;BME280;21185;50.978;13.720;2023-05-02T05:03:14;98320.56;;;13.74;58.70
34979;BME280;21185;50.978;13.720;2023-05-02T05:08:20;98326.59;;;13.74;58.69
34979;BME280;21185;50.978;13.720;2023-05-02T05:13:22;98334.22;;;13.76;58.63
34979;BME280;21185;50.978;13.720;2023-05-02T05:18:24;98346.91;;;13.79;58.79
34979;BME280;21185;50.978;13.720;2023-05-02T05:23:27;98351.75;;;13.82;58.71
34979;BME280;21185;50.978;13.720;2023-05-02T05:28:29;98354.81;;;13.85;58.70
34979;BME280;21185;50.978;13.720;2023-05-02T05:33:31;98359.22;;;13.85;58.87
34979;BME280;21185;50.978;13.720;2023-05-02T05:38:34;98368.03;;;13.84;58.66
34979;BME280;21185;50.978;13.720;2023-05-02T05:43:38;98368.22;;;13.82;58.68
34979;BME280;21185;50.978;13.720;2023-05-02T05:48:41;98380.09;;;13.85;58.56
34979;BME280;21185;50.978;13.720;2023-05-02T05:53:44;98383.97;;;13.89;58.54
34979;BME280;21185;50.978;13.720;2023-05-02T05:58:47;98389.81;;;13.91;58.48
34979;BME280;21185;50.978;13.720;2023-05-02T06:03:50;98400.25;;;13.91;58.63
34979;BME280;21185;50.978;13.720;2023-05-02T06:08:53;98408.34;;;13.96;58.41
34979;BME280;21185;50.978;13.720;2023-05-02T06:13:55;98418.22;;;14.01;58.27
34979;BME280;21185;50.978;13.720;2023-05-02T06:18:58;98421.56;;;14.09;58.12
34979;BME280;21185;50.978;13.720;2023-05-02T06:24:00;98427.84;;;14.15;57.88
34979;BME280;21185;50.978;13.720;2023-05-02T06:29:01;98439.91;;;14.16;57.61
34979;BME280;21185;50.978;13.720;2023-05-02T06:34:04;98445.22;;;14.22;57.69
34979;BME280;21185;50.978;13.720;2023-05-02T06:39:06;98461.59;;;14.31;57.56
34979;BME280;21185;50.978;13.720;2023-05-02T06:44:08;98465.81;;;14.32;57.09
34979;BME280;21185;50.978;13.720;2023-05-02T06:49:10;98471.84;;;14.33;56.95
34979;BME280;21185;50.978;13.720;2023-05-02T06:54:12;98474.09;;;14.36;57.01
34979;BME280;21185;50.978;13.720;2023-05-02T06:59:15;98485.63;;;14.41;56.94
34979;BME280;21185;50.978;13.720;2023-05-02T07:04:20;98488.53;;;14.46;56.65
34979;BME280;21185;50.978;13.720;2023-05-02T07:09:22;98499.34;;;14.43;56.30
34979;BME280;21185;50.978;13.720;2023-05-02T07:14:24;98504.28;;;14.53;56.25
34979;BME280;21185;50.978;13.720;2023-05-02T07:19:26;98512.38;;;14.58;56.31
34979;BME280;21185;50.978;13.720;2023-05-02T07:24:28;98513.63;;;14.62;56.18
34979;BME280;21185;50.978;13.720;2023-05-02T07:29:30;98523.63;;;14.58;56.46
34979;BME280;21185;50.978;13.720;2023-05-02T07:34:32;98533.00;;;14.53;56.46
34979;BME280;21185;50.978;13.720;2023-05-02T07:39:34;98539.13;;;14.45;56.62
34979;BME280;21185;50.978;13.720;2023-05-02T07:44:36;98545.22;;;14.38;56.94
34979;BME280;21185;50.978;13.720;2023-05-02T07:49:38;98560.97;;;14.30;57.20
34979;BME280;21185;50.978;13.720;2023-05-02T07:54:40;98574.56;;;14.25;57.25
34979;BME280;21185;50.978;13.720;2023-05-02T07:59:43;98574.56;;;14.25;57.49
34979;BME280;21185;50.978;13.720;2023-05-02T08:04:46;98575.47;;;14.32;57.50
34979;BME280;21185;50.978;13.720;2023-05-02T08:09:48;98590.91;;;14.42;57.18
34979;BME280;21185;50.978;13.720;2023-05-02T08:14:51;98594.59;;;14.47;57.26
34979;BME280;21185;50.978;13.720;2023-05-02T08:19:52;98614.41;;;14.56;57.36
34979;BME280;21185;50.978;13.720;2023-05-02T08:24:54;98608.56;;;14.69;57.21
34979;BME280;21185;50.978;13.720;2023-05-02T08:29:56;98612.50;;;14.95;57.25
34979;BME280;21185;50.978;13.720;2023-05-02T08:35:01;98614.47;;;15.22;56.72
34979;BME280;21185;50.978;13.720;2023-05-02T08:40:04;98619.91;;;15.42;56.62
34979;BME280;21185;50.978;13.720;2023-05-02T08:45:07;98618.75;;;15.44;56.47
34979;BME280;21185;50.978;13.720;2023-05-02T08:50:10;98630.13;;;15.37;56.97
34979;BME280;21185;50.978;13.720;2023-05-02T08:55:12;98639.78;;;15.21;57.16
34979;BME280;21185;50.978;13.720;2023-05-02T09:00:16;98639.63;;;15.08;57.29
34979;BME280;21185;50.978;13.720;2023-05-02T09:05:19;98635.75;;;15.19;57.09
34979;BME280;21185;50.978;13.720;2023-05-02T09:10:27;98643.91;;;15.45;56.91
34979;BME280;21185;50.978;13.720;2023-05-02T09:15:29;98657.19;;;15.65;56.53
34979;BME280;21185;50.978;13.720;2023-05-02T09:20:39;98651.84;;;15.73;56.38
34979;BME280;21185;50.978;13.720;2023-05-02T09:25:41;98669.84;;;15.83;56.39
34979;BME280;21185;50.978;13.720;2023-05-02T09:30:43;98673.84;;;15.79;55.74
34979;BME280;21185;50.978;13.720;2023-05-02T09:35:53;98671.69;;;15.68;55.54
34979;BME280;21185;50.978;13.720;2023-05-02T09:40:56;98667.97;;;15.77;55.27
34979;BME280;21185;50.978;13.720;2023-05-02T09:46:05;98678.97;;;16.08;55.09
34979;BME280;21185;50.978;13.720;2023-05-02T09:51:16;98679.88;;;16.22;55.09
34979;BME280;21185;50.978;13.720;2023-05-02T09:56:18;98685.56;;;16.26;54.96
34979;BME280;21185;50.978;13.720;2023-05-02T10:01:23;98694.53;;;16.16;54.78
34979;BME280;21185;50.978;13.720;2023-05-02T10:06:25;98691.38;;;16.21;54.98
34979;BME280;21185;50.978;13.720;2023-05-02T10:11:29;98706.88;;;16.23;55.48
34979;BME280;21185;50.978;13.720;2023-05-02T10:16:36;98703.94;;;16.11;55.80
34979;BME280;21185;50.978;13.720;2023-05-02T10:21:42;98704.88;;;16.03;55.97
34979;BME280;21185;50.978;13.720;2023-05-02T10:26:44;98716.34;;;16.02;55.98
34979;BME280;21185;50.978;13.720;2023-05-02T10:31:48;98712.00;;;16.09;56.18
34979;BME280;21185;50.978;13.720;2023-05-02T10:36:51;98723.78;;;16.20;55.94
34979;BME280;21185;50.978;13.720;2023-05-02T10:41:55;98728.31;;;16.33;56.10
34979;BME280;21185;50.978;13.720;2023-05-02T10:46:59;98725.09;;;16.31;55.96
34979;BME280;21185;50.978;13.720;2023-05-02T10:52:25;98727.41;;;16.19;56.03
34979;BME280;21185;50.978;13.720;2023-05-02T10:57:28;98725.09;;;16.09;56.12
34979;BME280;21185;50.978;13.720;2023-05-02T11:07:33;98730.47;;;15.86;56.42
34979;BME280;21185;50.978;13.720;2023-05-02T11:12:43;98731.72;;;15.91;56.27
34979;BME280;21185;50.978;13.720;2023-05-02T11:18:02;98731.13;;;16.10;56.09
34979;BME280;21185;50.978;13.720;2023-05-02T11:23:28;98728.28;;;16.26;56.20
34979;BME280;21185;50.978;13.720;2023-05-02T11:34:00;98729.88;;;16.48;56.16
34979;BME280;21185;50.978;13.720;2023-05-02T11:39:04;98736.19;;;16.54;56.13
34979;BME280;21185;50.978;13.720;2023-05-02T11:44:19;98738.53;;;16.49;56.33
34979;BME280;21185;50.978;13.720;2023-05-02T11:49:21;98732.75;;;16.53;56.34
34979;BME280;21185;50.978;13.720;2023-05-02T11:54:23;98736.22;;;16.82;56.13
34979;BME280;21185;50.978;13.720;2023-05-02T11:59:24;98729.53;;;17.07;55.40
34979;BME280;21185;50.978;13.720;2023-05-02T12:04:27;98730.97;;;17.10;55.67
34979;BME280;21185;50.978;13.720;2023-05-02T12:09:29;98743.75;;;16.92;55.62
34979;BME280;21185;50.978;13.720;2023-05-02T12:14:31;98744.41;;;16.72;55.77
34979;BME280;21185;50.978;13.720;2023-05-02T12:19:37;98741.16;;;16.70;55.42
34979;BME280;21185;50.978;13.720;2023-05-02T12:24:39;98745.00;;;16.96;55.40
34979;BME280;21185;50.978;13.720;2023-05-02T12:29:43;98741.59;;;17.02;55.01
34979;BME280;21185;50.978;13.720;2023-05-02T12:34:46;98735.78;;;17.06;55.15
34979;BME280;21185;50.978;13.720;2023-05-02T12:39:48;98739.44;;;17.12;54.91
34979;BME280;21185;50.978;13.720;2023-05-02T12:44:51;98730.94;;;17.03;54.45
34979;BME280;21185;50.978;13.720;2023-05-02T12:49:55;98738.59;;;17.05;53.52
34979;BME280;21185;50.978;13.720;2023-05-02T12:55:17;98746.22;;;17.00;53.98
34979;BME280;21185;50.978;13.720;2023-05-02T13:00:19;98752.22;;;16.94;54.27
34979;BME280;21185;50.978;13.720;2023-05-02T13:05:21;98750.38;;;16.88;54.56
34979;BME280;21185;50.978;13.720;2023-05-02T13:10:24;98764.25;;;16.81;54.64
34979;BME280;21185;50.978;13.720;2023-05-02T13:15:26;98757.28;;;16.95;54.59
34979;BME280;21185;50.978;13.720;2023-05-02T13:20:28;98755.59;;;17.15;54.49
34979;BME280;21185;50.978;13.720;2023-05-02T13:25:30;98749.44;;;17.30;54.49
34979;BME280;21185;50.978;13.720;2023-05-02T13:30:32;98749.69;;;17.41;54.45
34979;BME280;21185;50.978;13.720;2023-05-02T13:35:34;98754.56;;;17.44;54.74
34979;BME280;21185;50.978;13.720;2023-05-02T13:40:36;98755.78;;;17.48;54.59
34979;BME280;21185;50.978;13.720;2023-05-02T13:45:40;98756.44;;;17.57;54.14
34979;BME280;21185;50.978;13.720;2023-05-02T13:50:43;98753.63;;;17.59;54.01
34979;BME280;21185;50.978;13.720;2023-05-02T13:55:45;98762.69;;;17.56;54.25
34979;BME280;21185;50.978;13.720;2023-05-02T14:00:47;98754.63;;;17.58;54.24
34979;BME280;21185;50.978;13.720;2023-05-02T14:05:49;98764.31;;;17.57;54.41
34979;BME280;21185;50.978;13.720;2023-05-02T14:10:51;98764.91;;;17.53;54.05
34979;BME280;21185;50.978;13.720;2023-05-02T14:15:53;98764.66;;;17.47;54.05
34979;BME280;21185;50.978;13.720;2023-05-02T14:20:55;98764.00;;;17.39;54.00
34979;BME280;21185;50.978;13.720;2023-05-02T14:26:00;98767.50;;;17.53;54.11
34979;BME280;21185;50.978;13.720;2023-05-02T14:31:03;98770.97;;;17.60;53.48
34979;BME280;21185;50.978;13.720;2023-05-02T14:36:05;98761.66;;;17.51;53.85
34979;BME280;21185;50.978;13.720;2023-05-02T14:41:08;98769.91;;;17.47;53.91
34979;BME280;21185;50.978;13.720;2023-05-02T14:46:10;98772.19;;;17.57;53.83
34979;BME280;21185;50.978;13.720;2023-05-02T14:51:12;98775.34;;;17.46;53.66
34979;BME280;21185;50.978;13.720;2023-05-02T14:56:14;98781.44;;;17.19;54.07
34979;BME280;21185;50.978;13.720;2023-05-02T15:01:18;98801.22;;;16.93;54.47
34979;BME280;21185;50.978;13.720;2023-05-02T15:06:21;98812.22;;;16.61;54.90
34979;BME280;21185;50.978;13.720;2023-05-02T15:11:23;98836.50;;;16.33;55.74
34979;BME280;21185;50.978;13.720;2023-05-02T15:16:26;98831.59;;;16.09;56.28
34979;BME280;21185;50.978;13.720;2023-05-02T15:21:28;98841.66;;;15.91;56.52
34979;BME280;21185;50.978;13.720;2023-05-02T15:26:31;98849.50;;;15.76;56.74
34979;BME280;21185;50.978;13.720;2023-05-02T15:31:33;98858.00;;;15.63;57.01
34979;BME280;21185;50.978;13.720;2023-05-02T15:36:35;98866.09;;;15.53;57.27
34979;BME280;21185;50.978;13.720;2023-05-02T15:41:41;98870.06;;;15.49;57.51
34979;BME280;21185;50.978;13.720;2023-05-02T15:46:43;98866.91;;;15.54;57.40
34979;BME280;21185;50.978;13.720;2023-05-02T15:51:47;98878.09;;;15.63;57.58
34979;BME280;21185;50.978;13.720;2023-05-02T15:56:49;98884.97;;;15.64;57.40
34979;BME280;21185;50.978;13.720;2023-05-02T16:01:51;98883.59;;;15.53;57.54
34979;BME280;21185;50.978;13.720;2023-05-02T16:06:53;98886.13;;;15.46;57.45
34979;BME280;21185;50.978;13.720;2023-05-02T16:11:56;98902.34;;;15.42;57.50
34979;BME280;21185;50.978;13.720;2023-05-02T16:16:58;98913.16;;;15.39;57.38
34979;BME280;21185;50.978;13.720;2023-05-02T16:22:00;98908.28;;;15.36;57.18
34979;BME280;21185;50.978;13.720;2023-05-02T16:27:03;98911.41;;;15.31;57.15
34979;BME280;21185;50.978;13.720;2023-05-02T16:32:05;98921.13;;;15.22;57.42
34979;BME280;21185;50.978;13.720;2023-05-02T16:37:08;98924.44;;;15.16;57.44
34979;BME280;21185;50.978;13.720;2023-05-02T16:42:11;98931.66;;;15.14;57.26
34979;BME280;21185;50.978;13.720;2023-05-02T16:47:13;98933.81;;;15.11;57.12
34979;BME280;21185;50.978;13.720;2023-05-02T16:52:15;98946.41;;;15.07;57.24
34979;BME280;21185;50.978;13.720;2023-05-02T16:57:17;98948.56;;;15.04;56.86
34979;BME280;21185;50.978;13.720;2023-05-02T17:02:20;98950.53;;;15.02;56.65
34979;BME280;21185;50.978;13.720;2023-05-02T17:07:22;98956.75;;;15.01;56.47
34979;BME280;21185;50.978;13.720;2023-05-02T17:12:24;98962.31;;;14.98;56.36
34979;BME280;21185;50.978;13.720;2023-05-02T17:17:26;98968.25;;;14.92;56.40
34979;BME280;21185;50.978;13.720;2023-05-02T17:22:28;98975.44;;;14.89;56.43
34979;BME280;21185;50.978;13.720;2023-05-02T17:27:30;98984.78;;;14.84;56.42
34979;BME280;21185;50.978;13.720;2023-05-02T17:32:32;98992.66;;;14.76;56.38
34979;BME280;21185;50.978;13.720;2023-05-02T17:37:35;98994.47;;;14.75;56.67
34979;BME280;21185;50.978;13.720;2023-05-02T17:42:41;99000.03;;;14.72;56.64
34979;BME280;21185;50.978;13.720;2023-05-02T17:47:44;99011.00;;;14.68;56.70
34979;BME280;21185;50.978;13.720;2023-05-02T17:52:46;99018.34;;;14.64;56.37
34979;BME280;21185;50.978;13.720;2023-05-02T17:57:48;99022.28;;;14.60;56.36
34979;BME280;21185;50.978;13.720;2023-05-02T18:02:50;99025.06;;;14.58;56.24
34979;BME280;21185;50.978;13.720;2023-05-02T18:07:52;99032.41;;;14.55;56.10
34979;BME280;21185;50.978;13.720;2023-05-02T18:12:54;99035.03;;;14.55;56.04
34979;BME280;21185;50.978;13.720;2023-05-02T18:17:56;99050.38;;;14.50;56.03
34979;BME280;21185;50.978;13.720;2023-05-02T18:22:58;99051.72;;;14.46;56.17
34979;BME280;21185;50.978;13.720;2023-05-02T18:28:03;99059.38;;;14.47;55.86
34979;BME280;21185;50.978;13.720;2023-05-02T18:33:06;99061.50;;;14.44;55.89
34979;BME280;21185;50.978;13.720;2023-05-02T18:38:08;99071.13;;;14.35;55.82
34979;BME280;21185;50.978;13.720;2023-05-02T18:43:11;99072.44;;;14.31;55.75
34979;BME280;21185;50.978;13.720;2023-05-02T18:48:13;99072.59;;;14.30;55.84
34979;BME280;21185;50.978;13.720;2023-05-02T18:53:15;99088.28;;;14.30;55.84
34979;BME280;21185;50.978;13.720;2023-05-02T18:58:17;99097.41;;;14.25;55.70
34979;BME280;21185;50.978;13.720;2023-05-02T19:03:19;99097.09;;;14.20;55.86
34979;BME280;21185;50.978;13.720;2023-05-02T19:08:21;99086.16;;;14.17;55.74
34979;BME280;21185;50.978;13.720;2023-05-02T19:13:23;99096.94;;;14.14;55.57
34979;BME280;21185;50.978;13.720;2023-05-02T19:18:27;99097.75;;;14.14;55.70
34979;BME280;21185;50.978;13.720;2023-05-02T19:23:29;99104.94;;;14.12;55.42
34979;BME280;21185;50.978;13.720;2023-05-02T19:28:31;99112.44;;;14.07;55.32
34979;BME280;21185;50.978;13.720;2023-05-02T19:33:33;99126.63;;;14.05;55.11
34979;BME280;21185;50.978;13.720;2023-05-02T19:38:38;99120.25;;;13.99;55.13
34979;BME280;21185;50.978;13.720;2023-05-02T19:43:42;99122.72;;;13.92;55.07
34979;BME280;21185;50.978;13.720;2023-05-02T19:48:44;99122.53;;;13.86;55.16
34979;BME280;21185;50.978;13.720;2023-05-02T19:53:46;99123.34;;;13.78;55.21
34979;BME280;21185;50.978;13.720;2023-05-02T19:58:48;99137.84;;;13.73;55.08
34979;BME280;21185;50.978;13.720;2023-05-02T20:03:50;99144.34;;;13.60;55.20
34979;BME280;21185;50.978;13.720;2023-05-02T20:08:52;99146.94;;;13.52;55.22
34979;BME280;21185;50.978;13.720;2023-05-02T20:13:54;99146.28;;;13.50;55.11
34979;BME280;21185;50.978;13.720;2023-05-02T20:18:56;99149.88;;;13.49;54.97
34979;BME280;21185;50.978;13.720;2023-05-02T20:23:58;99156.88;;;13.49;54.95
34979;BME280;21185;50.978;13.720;2023-05-02T20:29:00;99159.97;;;13.44;54.90
34979;BME280;21185;50.978;13.720;2023-05-02T20:34:04;99170.22;;;13.46;54.88
34979;BME280;21185;50.978;13.720;2023-05-02T20:39:07;99177.09;;;13.47;54.89
34979;BME280;21185;50.978;13.720;2023-05-02T20:44:12;99175.28;;;13.47;54.43
34979;BME280;21185;50.978;13.720;2023-05-02T20:49:17;99181.63;;;13.45;54.27
34979;BME280;21185;50.978;13.720;2023-05-02T20:54:19;99179.19;;;13.43;54.36
34979;BME280;21185;50.978;13.720;2023-05-02T20:59:21;99189.94;;;13.40;54.29
34979;BME280;21185;50.978;13.720;2023-05-02T21:04:23;99183.91;;;13.40;54.23
34979;BME280;21185;50.978;13.720;2023-05-02T21:09:24;99188.63;;;13.36;54.18
34979;BME280;21185;50.978;13.720;2023-05-02T21:14:26;99197.72;;;13.32;54.16
34979;BME280;21185;50.978;13.720;2023-05-02T21:19:28;99201.47;;;13.29;54.01
34979;BME280;21185;50.978;13.720;2023-05-02T21:24:33;99207.50;;;13.30;54.05
34979;BME280;21185;50.978;13.720;2023-05-02T21:29:35;99205.19;;;13.27;53.99
34979;BME280;21185;50.978;13.720;2023-05-02T21:34:37;99194.75;;;13.27;53.91
34979;BME280;21185;50.978;13.720;2023-05-02T21:39:39;99197.38;;;13.27;53.97
34979;BME280;21185;50.978;13.720;2023-05-02T21:44:41;99206.31;;;13.24;53.91
34979;BME280;21185;50.978;13.720;2023-05-02T21:49:42;99205.16;;;13.19;53.82
34979;BME280;21185;50.978;13.720;2023-05-02T21:54:44;99205.31;;;13.17;54.04
34979;BME280;21185;50.978;13.720;2023-05-02T21:59:50;99212.16;;;13.18;53.84
34979;BME280;21185;50.978;13.720;2023-05-02T22:04:52;99221.59;;;13.19;53.90
34979;BME280;21185;50.978;13.720;2023-05-02T22:09:54;99216.56;;;13.18;53.94
34979;BME280;21185;50.978;13.720;2023-05-02T22:14:56;99214.09;;;13.16;53.95
34979;BME280;21185;50.978;13.720;2023-05-02T22:19:58;99221.38;;;13.13;53.86
34979;BME280;21185;50.978;13.720;2023-05-02T22:25:00;99223.16;;;13.12;54.03
34979;BME280;21185;50.978;13.720;2023-05-02T22:30:04;99220.22;;;13.07;54.07
34979;BME280;21185;50.978;13.720;2023-05-02T22:35:06;99218.88;;;13.03;54.11
34979;BME280;21185;50.978;13.720;2023-05-02T22:40:09;99220.31;;;12.97;54.08
34979;BME280;21185;50.978;13.720;2023-05-02T22:45:12;99227.47;;;12.95;54.18
34979;BME280;21185;50.978;13.720;2023-05-02T22:50:14;99229.09;;;12.96;54.15
34979;BME280;21185;50.978;13.720;2023-05-02T22:55:16;99228.44;;;12.94;54.16
34979;BME280;21185;50.978;13.720;2023-05-02T23:00:18;99229.41;;;12.93;54.20
34979;BME280;21185;50.978;13.720;2023-05-02T23:05:20;99228.75;;;12.91;54.33
34979;BME280;21185;50.978;13.720;2023-05-02T23:10:23;99232.78;;;12.86;54.39
34979;BME280;21185;50.978;13.720;2023-05-02T23:15:24;99232.59;;;12.79;54.37
34979;BME280;21185;50.978;13.720;2023-05-02T23:20:26;99228.66;;;12.75;54.35
34979;BME280;21185;50.978;13.720;2023-05-02T23:25:28;99238.41;;;12.73;54.49
34979;BME280;21185;50.978;13.720;2023-05-02T23:30:31;99231.56;;;12.72;54.54
34979;BME280;21185;50.978;13.720;2023-05-02T23:35:36;99230.06;;;12.70;54.57
34979;BME280;21185;50.978;13.720;2023-05-02T23:40:38;99241.63;;;12.67;54.50
34979;BME280;21185;50.978;13.720;2023-05-02T23:45:40;99242.44;;;12.68;54.69
34979;BME280;21185;50.978;13.720;2023-05-02T23:50:42;99242.44;;;12.68;54.72
34979;BME280;21185;50.978;13.720;2023-05-02T23:55:44;99246.16;;;12.65;54.73
